createdAt,value
2017-07-29T00:01:36.980Z,77.40
2017-07-29T00:04:04.437Z,77.94
2017-07-29T00:06:32.441Z,77.13
2017-07-29T00:08:59.912Z,77.32
2017-07-29T00:11:27.387Z,78.26
2017-07-29T00:13:54.827Z,77.85
2017-07-29T00:16:22.323Z,76.88
2017-07-29T00:18:50.747Z,76.32
2017-07-29T00:21:18.362Z,75.95
2017-07-29T00:23:45.930Z,75.25
2017-07-29T00:26:13.480Z,75.81
2017-07-29T00:28:40.923Z,75.81
2017-07-29T00:31:08.397Z,75.50
2017-07-29T00:33:35.863Z,76.02
2017-07-29T00:36:03.408Z,75.39
2017-07-29T00:38:30.914Z,76.46
2017-07-29T00:40:58.423Z,76.49
2017-07-29T00:43:25.896Z,76.82
2017-07-29T00:45:53.351Z,77.20
2017-07-29T00:48:20.822Z,77.19
2017-07-29T00:50:48.348Z,78.14
2017-07-29T00:53:15.819Z,78.04
2017-07-29T00:55:43.359Z,77.89
2017-07-29T00:58:10.835Z,78.33
2017-07-29T01:00:38.288Z,78.59
2017-07-29T01:03:05.756Z,79.00
2017-07-29T01:05:33.292Z,78.60
2017-07-29T01:08:00.792Z,78.81
2017-07-29T01:10:28.307Z,79.18
2017-07-29T01:12:55.771Z,78.26
2017-07-29T01:15:23.220Z,79.08
2017-07-29T01:17:50.728Z,78.87
2017-07-29T01:20:18.848Z,79.24
2017-07-29T01:22:46.409Z,79.28
2017-07-29T01:25:13.968Z,79.68
2017-07-29T01:27:41.435Z,78.57
2017-07-29T01:30:08.991Z,78.99
2017-07-29T01:32:36.666Z,79.05
2017-07-29T01:35:04.115Z,79.19
2017-07-29T01:37:31.671Z,78.90
2017-07-29T01:39:59.219Z,79.37
2017-07-29T01:42:26.659Z,79.87
2017-07-29T01:44:54.647Z,79.83
2017-07-29T01:47:22.103Z,79.03
2017-07-29T01:49:49.571Z,79.00
2017-07-29T01:52:17.079Z,79.93
2017-07-29T01:54:44.574Z,79.60
2017-07-29T01:57:12.130Z,78.84
2017-07-29T01:59:39.595Z,78.54
2017-07-29T02:02:07.147Z,77.78
2017-07-29T02:04:34.622Z,78.53
2017-07-29T02:07:02.079Z,78.87
2017-07-29T02:09:30.054Z,78.88
2017-07-29T02:11:57.511Z,78.96
2017-07-29T02:14:24.985Z,79.06
2017-07-29T02:16:52.426Z,78.73
2017-07-29T02:19:19.916Z,78.53
2017-07-29T02:21:47.387Z,78.86
2017-07-29T02:24:14.868Z,78.89
2017-07-29T02:26:42.311Z,79.68
2017-07-29T02:29:09.795Z,80.40
2017-07-29T02:31:37.376Z,80.75
2017-07-29T02:34:04.851Z,80.83
2017-07-29T02:36:32.353Z,82.12
2017-07-29T02:38:59.786Z,80.71
2017-07-29T02:41:27.262Z,81.46
2017-07-29T02:43:54.723Z,80.61
2017-07-29T02:46:22.447Z,80.92
2017-07-29T02:48:49.940Z,81.23
2017-07-29T02:51:17.423Z,81.36
2017-07-29T02:53:44.871Z,81.12
2017-07-29T02:56:12.352Z,81.51
2017-07-29T02:58:39.831Z,81.40
2017-07-29T03:01:07.327Z,80.58
2017-07-29T03:03:34.767Z,81.23
2017-07-29T03:06:02.240Z,80.12
2017-07-29T03:08:29.697Z,79.47
2017-07-29T03:10:57.260Z,80.39
2017-07-29T03:13:24.712Z,80.05
2017-07-29T03:15:52.202Z,78.16
2017-07-29T03:18:19.651Z,79.47
2017-07-29T03:20:47.183Z,78.31
2017-07-29T03:23:14.699Z,79.25
2017-07-29T03:25:42.162Z,79.30
2017-07-29T03:28:09.663Z,79.05
2017-07-29T03:30:37.212Z,79.45
2017-07-29T03:33:04.678Z,79.46
2017-07-29T03:35:32.133Z,80.07
2017-07-29T03:37:59.588Z,79.91
2017-07-29T03:40:27.050Z,80.14
2017-07-29T03:42:54.701Z,79.05
2017-07-29T03:45:22.144Z,79.74
2017-07-29T03:47:49.675Z,80.20
2017-07-29T03:50:17.187Z,79.88
2017-07-29T03:52:44.660Z,79.45
2017-07-29T03:55:12.119Z,79.21
2017-07-29T03:57:39.634Z,78.83
2017-07-29T04:00:07.102Z,76.72
2017-07-29T04:02:34.662Z,76.73
2017-07-29T04:05:02.116Z,77.93
2017-07-29T04:07:29.675Z,77.87
2017-07-29T04:09:57.122Z,78.07
2017-07-29T04:12:24.578Z,77.60
2017-07-29T04:14:52.047Z,78.15
2017-07-29T04:17:19.607Z,77.37
2017-07-29T04:19:47.042Z,77.84
2017-07-29T04:22:14.504Z,77.50
2017-07-29T04:24:41.951Z,77.71
2017-07-29T04:27:09.550Z,78.40
2017-07-29T04:29:37.087Z,77.37
2017-07-29T04:32:04.548Z,78.50
2017-07-29T04:34:32.098Z,78.94
2017-07-29T04:36:59.563Z,79.25
2017-07-29T04:39:27.915Z,79.27
2017-07-29T04:41:55.396Z,79.54
2017-07-29T04:44:22.857Z,79.65
2017-07-29T04:46:50.319Z,79.59
2017-07-29T04:49:17.868Z,80.00
2017-07-29T04:51:45.730Z,79.14
2017-07-29T04:54:13.293Z,80.24
2017-07-29T04:56:40.735Z,79.44
2017-07-29T04:59:08.211Z,78.54
2017-07-29T05:01:35.662Z,79.32
2017-07-29T05:04:03.575Z,78.51
2017-07-29T05:06:31.037Z,78.06
2017-07-29T05:08:58.534Z,78.36
2017-07-29T05:11:26.000Z,78.05
2017-07-29T05:13:53.508Z,77.98
2017-07-29T05:16:21.703Z,78.23
2017-07-29T05:18:49.201Z,78.27
2017-07-29T05:21:16.747Z,78.25
2017-07-29T05:23:44.315Z,78.55
2017-07-29T05:26:11.763Z,78.47
2017-07-29T05:28:40.019Z,78.94
2017-07-29T05:31:07.458Z,79.25
2017-07-29T05:33:34.950Z,79.30
2017-07-29T05:36:02.391Z,78.72
2017-07-29T05:38:29.863Z,78.76
2017-07-29T05:40:57.542Z,77.72
2017-07-29T05:43:24.991Z,76.96
2017-07-29T05:45:52.453Z,76.53
2017-07-29T05:48:19.902Z,75.12
2017-07-29T05:50:47.402Z,73.18
2017-07-29T05:53:14.848Z,74.08
2017-07-29T05:55:42.365Z,73.72
2017-07-29T05:58:09.856Z,73.57
2017-07-29T06:00:37.325Z,73.35
2017-07-29T06:03:04.779Z,73.65
2017-07-29T06:05:32.247Z,73.48
2017-07-29T06:07:59.857Z,72.96
2017-07-29T06:10:27.402Z,73.43
2017-07-29T06:12:54.863Z,70.49
2017-07-29T06:15:22.346Z,69.74
2017-07-29T06:17:49.811Z,69.87
2017-07-29T06:20:17.284Z,69.72
2017-07-29T06:22:44.734Z,68.39
2017-07-29T06:25:12.202Z,69.60
2017-07-29T06:27:39.666Z,66.24
2017-07-29T06:30:07.219Z,64.92
2017-07-29T06:32:34.678Z,62.90
2017-07-29T06:35:02.183Z,62.24
2017-07-29T06:37:29.735Z,62.16
2017-07-29T06:39:57.204Z,61.08
2017-07-29T06:42:24.661Z,59.41
2017-07-29T06:44:52.131Z,58.94
2017-07-29T06:47:19.579Z,58.39
2017-07-29T06:49:47.086Z,58.59
2017-07-29T06:52:14.606Z,58.17
2017-07-29T06:54:42.194Z,58.35
2017-07-29T06:57:09.697Z,59.63
2017-07-29T06:59:37.257Z,59.40
2017-07-29T07:02:04.731Z,58.57
2017-07-29T07:04:32.192Z,57.06
2017-07-29T07:06:59.654Z,56.89
2017-07-29T07:09:27.098Z,56.17
2017-07-29T07:11:54.591Z,56.85
2017-07-29T07:14:22.042Z,55.96
2017-07-29T07:16:49.555Z,55.81
2017-07-29T07:19:17.030Z,56.03
2017-07-29T07:21:44.518Z,54.42
2017-07-29T07:24:11.994Z,54.82
2017-07-29T07:26:39.483Z,55.06
2017-07-29T07:29:06.928Z,55.14
2017-07-29T07:31:34.399Z,54.84
2017-07-29T07:34:02.051Z,55.02
2017-07-29T07:36:29.611Z,53.67
2017-07-29T07:38:57.071Z,53.55
2017-07-29T07:41:24.539Z,52.79
2017-07-29T07:43:52.232Z,52.99
2017-07-29T07:46:19.747Z,52.51
2017-07-29T07:48:47.221Z,52.00
2017-07-29T07:51:15.582Z,51.54
2017-07-29T07:53:43.056Z,51.34
2017-07-29T07:56:10.503Z,51.15
2017-07-29T07:58:37.965Z,51.18
2017-07-29T08:01:05.439Z,51.26
2017-07-29T08:03:32.954Z,50.89
2017-07-29T08:06:00.414Z,51.10
2017-07-29T08:08:27.906Z,50.64
2017-07-29T08:10:55.491Z,49.84
2017-07-29T08:13:23.094Z,50.03
2017-07-29T08:15:50.626Z,50.78
2017-07-29T08:18:18.085Z,50.54
2017-07-29T08:20:45.562Z,49.71
2017-07-29T08:23:13.062Z,49.68
2017-07-29T08:25:40.583Z,49.77
2017-07-29T08:28:08.071Z,49.42
2017-07-29T08:30:35.718Z,49.17
2017-07-29T08:33:05.306Z,49.64
2017-07-29T08:35:32.879Z,48.73
2017-07-29T08:38:00.354Z,49.11
2017-07-29T08:40:27.792Z,48.78
2017-07-29T08:42:55.267Z,48.78
2017-07-29T08:45:22.731Z,48.25
2017-07-29T08:47:50.171Z,48.52
2017-07-29T08:50:17.636Z,48.67
2017-07-29T08:52:45.097Z,47.56
2017-07-29T08:55:12.623Z,47.92
2017-07-29T08:57:40.068Z,47.75
2017-07-29T09:00:07.531Z,46.79
2017-07-29T09:02:35.003Z,46.95
2017-07-29T09:05:02.543Z,47.04
2017-07-29T09:07:30.003Z,46.87
2017-07-29T09:09:58.092Z,46.82
2017-07-29T09:12:25.538Z,46.85
2017-07-29T09:14:53.004Z,45.52
2017-07-29T09:17:20.454Z,45.08
2017-07-29T09:19:47.927Z,45.71
2017-07-29T09:22:23.720Z,45.92
2017-07-29T09:24:51.193Z,46.83
2017-07-29T09:27:18.636Z,45.52
2017-07-29T09:29:46.131Z,45.83
2017-07-29T09:32:13.578Z,45.09
2017-07-29T09:34:41.057Z,44.67
2017-07-29T09:37:08.518Z,44.94
2017-07-29T09:39:35.958Z,44.57
2017-07-29T09:42:03.816Z,45.11
2017-07-29T09:44:31.272Z,44.52
2017-07-29T09:46:58.740Z,44.58
2017-07-29T09:49:26.290Z,44.14
2017-07-29T09:51:53.768Z,44.32
2017-07-29T09:54:21.307Z,43.57
2017-07-29T09:56:48.775Z,44.89
2017-07-29T09:59:16.227Z,43.72
2017-07-29T10:01:43.686Z,43.40
2017-07-29T10:04:11.131Z,43.45
2017-07-29T10:06:38.595Z,44.86
2017-07-29T10:09:06.044Z,44.33
2017-07-29T10:11:33.523Z,43.62
2017-07-29T10:14:01.057Z,43.54
2017-07-29T10:16:28.516Z,44.37
2017-07-29T10:18:55.964Z,43.98
2017-07-29T10:21:23.523Z,43.78
2017-07-29T10:23:50.961Z,43.52
2017-07-29T10:26:18.444Z,43.61
2017-07-29T10:28:45.888Z,43.47
2017-07-29T10:31:13.426Z,43.48
2017-07-29T10:33:40.911Z,42.74
2017-07-29T10:36:08.361Z,44.03
2017-07-29T10:38:36.234Z,43.42
2017-07-29T10:41:03.795Z,43.36
2017-07-29T10:43:31.265Z,42.95
2017-07-29T10:45:58.819Z,43.05
2017-07-29T10:48:26.287Z,43.14
2017-07-29T10:50:53.975Z,43.44
2017-07-29T10:53:21.487Z,44.54
2017-07-29T10:55:48.936Z,44.43
2017-07-29T10:58:16.583Z,44.08
2017-07-29T11:00:44.068Z,43.44
2017-07-29T11:03:12.434Z,44.22
2017-07-29T11:05:39.952Z,43.65
2017-07-29T11:08:07.422Z,44.36
2017-07-29T11:10:34.875Z,43.54
2017-07-29T11:13:04.818Z,43.64
2017-07-29T11:15:32.379Z,44.38
2017-07-29T11:17:59.943Z,44.90
2017-07-29T11:20:27.385Z,44.14
2017-07-29T11:22:54.859Z,44.47
2017-07-29T11:25:22.313Z,43.99
2017-07-29T11:27:49.851Z,44.70
2017-07-29T11:30:17.324Z,44.00
2017-07-29T11:32:44.772Z,44.75
2017-07-29T11:35:12.307Z,44.96
2017-07-29T11:37:39.815Z,43.48
2017-07-29T11:40:07.377Z,43.64
2017-07-29T11:42:34.882Z,43.65
2017-07-29T11:45:02.352Z,44.20
2017-07-29T11:47:29.842Z,44.00
2017-07-29T11:49:57.388Z,43.85
2017-07-29T11:52:24.831Z,43.68
2017-07-29T11:54:52.330Z,43.28
2017-07-29T11:57:19.859Z,43.63
2017-07-29T11:59:47.438Z,44.01
2017-07-29T12:02:14.899Z,43.42
2017-07-29T12:04:43.356Z,45.03
2017-07-29T12:07:10.798Z,44.10
2017-07-29T12:09:38.267Z,43.99
2017-07-29T12:12:05.707Z,44.29
2017-07-29T12:14:33.177Z,44.46
2017-07-29T12:17:00.614Z,44.39
2017-07-29T12:19:28.084Z,44.41
2017-07-29T12:21:55.550Z,44.97
2017-07-29T12:24:23.017Z,45.32
2017-07-29T12:26:50.467Z,44.71
2017-07-29T12:29:17.924Z,45.52
2017-07-29T12:31:45.471Z,45.21
2017-07-29T12:34:12.987Z,45.22
2017-07-29T12:36:40.447Z,44.74
2017-07-29T12:39:07.893Z,45.03
2017-07-29T12:41:35.374Z,44.80
2017-07-29T12:44:02.863Z,44.85
2017-07-29T12:46:30.340Z,44.55
2017-07-29T12:48:57.802Z,43.99
2017-07-29T12:51:25.333Z,43.75
2017-07-29T12:53:52.790Z,44.12
2017-07-29T12:56:21.055Z,43.61
2017-07-29T12:58:48.513Z,43.35
2017-07-29T13:01:15.979Z,43.79
2017-07-29T13:03:43.430Z,43.53
2017-07-29T13:06:10.903Z,43.96
2017-07-29T13:08:38.353Z,44.16
2017-07-29T13:11:05.827Z,43.96
2017-07-29T13:13:34.969Z,43.81
2017-07-29T13:16:02.424Z,43.46
2017-07-29T13:18:29.921Z,43.89
2017-07-29T13:20:57.473Z,43.21
2017-07-29T13:23:25.031Z,43.47
2017-07-29T13:25:52.579Z,42.33
2017-07-29T13:28:20.043Z,43.23
2017-07-29T13:30:47.488Z,42.88
2017-07-29T13:33:15.370Z,43.03
2017-07-29T13:35:42.826Z,42.52
2017-07-29T13:38:10.310Z,43.13
2017-07-29T13:40:37.763Z,42.86
2017-07-29T13:43:05.252Z,42.78
2017-07-29T13:45:32.711Z,42.61
2017-07-29T13:48:00.176Z,42.47
2017-07-29T13:50:27.616Z,42.66
2017-07-29T13:52:55.128Z,42.84
2017-07-29T13:55:22.704Z,43.06
2017-07-29T13:57:50.275Z,43.77
2017-07-29T14:00:18.343Z,43.02
2017-07-29T14:02:45.820Z,43.18
2017-07-29T14:05:13.296Z,43.67
2017-07-29T14:07:40.780Z,44.39
2017-07-29T14:10:08.213Z,44.02
2017-07-29T14:12:35.699Z,44.35
2017-07-29T14:15:03.162Z,44.20
2017-07-29T14:17:30.707Z,44.52
2017-07-29T14:19:58.178Z,44.23
2017-07-29T14:22:25.719Z,44.85
2017-07-29T14:24:53.443Z,44.35
2017-07-29T14:27:20.891Z,44.66
2017-07-29T14:29:48.407Z,44.19
2017-07-29T14:32:15.854Z,44.64
2017-07-29T14:34:43.322Z,44.63
2017-07-29T14:37:10.762Z,44.49
2017-07-29T14:39:38.228Z,44.26
2017-07-29T14:42:05.670Z,44.43
2017-07-29T14:44:33.141Z,45.12
2017-07-29T14:47:00.700Z,44.30
2017-07-29T14:49:28.249Z,44.73
2017-07-29T14:51:55.690Z,44.74
2017-07-29T14:54:23.163Z,44.96
2017-07-29T14:56:50.615Z,45.17
2017-07-29T14:59:18.070Z,44.53
2017-07-29T15:01:45.523Z,45.25
2017-07-29T15:04:12.994Z,44.57
2017-07-29T15:06:40.551Z,44.35
2017-07-29T15:09:07.994Z,43.54
2017-07-29T15:11:35.468Z,44.00
2017-07-29T15:14:02.913Z,44.18
2017-07-29T15:16:30.536Z,44.52
2017-07-29T15:18:58.040Z,45.11
2017-07-29T15:21:25.516Z,45.16
2017-07-29T15:23:53.009Z,46.23
2017-07-29T15:26:20.540Z,46.37
2017-07-29T15:28:47.984Z,46.03
2017-07-29T15:31:15.450Z,45.99
2017-07-29T15:33:42.903Z,46.19
2017-07-29T15:36:10.365Z,45.38
2017-07-29T15:38:37.815Z,45.32
2017-07-29T15:41:05.319Z,44.78
2017-07-29T15:43:32.791Z,45.42
2017-07-29T15:46:00.321Z,45.63
2017-07-29T15:48:27.767Z,45.66
2017-07-29T15:50:55.243Z,45.63
2017-07-29T15:53:22.727Z,45.70
2017-07-29T15:55:50.191Z,45.49
2017-07-29T15:58:17.653Z,46.30
2017-07-29T16:00:45.114Z,46.37
2017-07-29T16:03:12.574Z,46.77
2017-07-29T16:05:40.021Z,46.26
2017-07-29T16:08:07.492Z,47.06
2017-07-29T16:10:34.932Z,46.68
2017-07-29T16:13:02.495Z,46.19
2017-07-29T16:15:29.973Z,46.76
2017-07-29T16:17:57.457Z,46.53
2017-07-29T16:20:24.899Z,47.60
2017-07-29T16:22:52.370Z,47.62
2017-07-29T16:25:19.819Z,47.09
2017-07-29T16:27:47.333Z,46.64
2017-07-29T16:30:14.804Z,47.05
2017-07-29T16:32:42.344Z,46.84
2017-07-29T16:35:09.815Z,47.48
2017-07-29T16:37:37.312Z,47.25
2017-07-29T16:40:04.820Z,47.44
2017-07-29T16:42:32.369Z,47.31
2017-07-29T16:44:59.817Z,48.05
2017-07-29T16:47:27.298Z,47.51
2017-07-29T16:49:54.802Z,47.11
2017-07-29T16:52:22.341Z,46.93
2017-07-29T16:54:49.800Z,48.09
2017-07-29T16:57:17.271Z,46.88
2017-07-29T16:59:44.734Z,47.04
2017-07-29T17:02:12.174Z,47.25
2017-07-29T17:04:39.637Z,46.09
2017-07-29T17:07:07.202Z,46.43
2017-07-29T17:09:34.676Z,46.62
2017-07-29T17:12:02.223Z,46.82
2017-07-29T17:14:29.697Z,47.37
2017-07-29T17:16:57.146Z,47.49
2017-07-29T17:19:24.642Z,47.71
2017-07-29T17:21:52.091Z,48.10
2017-07-29T17:24:19.566Z,47.95
2017-07-29T17:26:47.094Z,48.62
2017-07-29T17:29:14.564Z,48.67
2017-07-29T17:31:42.019Z,47.98
2017-07-29T17:34:09.482Z,48.47
2017-07-29T17:36:36.932Z,49.35
2017-07-29T17:39:04.481Z,48.62
2017-07-29T17:41:31.958Z,48.18
2017-07-29T17:43:59.431Z,48.72
2017-07-29T17:46:26.939Z,48.49
2017-07-29T17:48:54.419Z,48.82
2017-07-29T17:51:21.866Z,48.57
2017-07-29T17:53:49.323Z,48.53
2017-07-29T17:56:16.886Z,48.77
2017-07-29T17:58:44.315Z,48.82
2017-07-29T18:01:11.783Z,48.96
2017-07-29T18:03:39.254Z,48.26
2017-07-29T18:06:06.814Z,48.89
2017-07-29T18:08:34.255Z,49.28
2017-07-29T18:11:01.726Z,49.46
2017-07-29T18:13:29.167Z,49.00
2017-07-29T18:15:56.630Z,49.52
2017-07-29T18:18:24.062Z,50.21
2017-07-29T18:20:51.557Z,50.02
2017-07-29T18:23:18.990Z,50.57
2017-07-29T18:25:46.461Z,50.77
2017-07-29T18:28:13.951Z,50.77
2017-07-29T18:30:41.411Z,51.67
2017-07-29T18:33:08.937Z,51.11
2017-07-29T18:35:36.415Z,50.99
2017-07-29T18:38:03.855Z,51.23
2017-07-29T18:40:31.336Z,51.56
2017-07-29T18:42:58.794Z,52.24
2017-07-29T18:45:26.229Z,52.37
2017-07-29T18:47:53.717Z,52.97
2017-07-29T18:50:22.599Z,54.37
2017-07-29T18:52:50.071Z,54.91
2017-07-29T18:55:17.574Z,56.00
2017-07-29T18:57:45.036Z,54.00
2017-07-29T19:00:12.498Z,56.69
2017-07-29T19:02:39.963Z,57.04
2017-07-29T19:05:07.415Z,57.19
2017-07-29T19:07:34.888Z,58.25
2017-07-29T19:10:02.332Z,59.67
2017-07-29T19:12:29.782Z,59.67
2017-07-29T19:14:57.227Z,59.85
2017-07-29T19:17:24.699Z,60.71
2017-07-29T19:19:52.151Z,61.32
2017-07-29T19:22:19.606Z,61.75
2017-07-29T19:24:47.112Z,62.22
2017-07-29T19:27:14.595Z,62.27
2017-07-29T19:29:42.071Z,61.23
2017-07-29T19:32:09.535Z,60.86
2017-07-29T19:34:36.989Z,60.87
2017-07-29T19:37:04.452Z,61.61
2017-07-29T19:39:32.007Z,61.04
2017-07-29T19:41:59.627Z,61.32
2017-07-29T19:44:27.096Z,61.31
2017-07-29T19:46:54.579Z,60.98
2017-07-29T19:49:22.137Z,60.82
2017-07-29T19:51:49.718Z,61.16
2017-07-29T19:54:17.455Z,61.13
2017-07-29T19:56:44.895Z,61.30
2017-07-29T19:59:12.359Z,61.03
2017-07-29T20:01:39.818Z,61.00
2017-07-29T20:04:07.345Z,61.26
2017-07-29T20:06:34.792Z,61.29
2017-07-29T20:09:02.248Z,62.12
2017-07-29T20:11:29.695Z,61.78
2017-07-29T20:13:57.163Z,61.67
2017-07-29T20:16:24.614Z,62.89
2017-07-29T20:18:52.075Z,62.94
2017-07-29T20:21:19.570Z,63.75
2017-07-29T20:23:47.094Z,63.71
2017-07-29T20:26:14.610Z,62.90
2017-07-29T20:28:42.126Z,62.79
2017-07-29T20:31:09.571Z,61.89
2017-07-29T20:33:37.076Z,63.55
2017-07-29T20:36:04.521Z,64.14
2017-07-29T20:38:31.986Z,62.95
2017-07-29T20:40:59.535Z,63.18
2017-07-29T20:43:26.992Z,63.82
2017-07-29T20:45:54.464Z,64.87
2017-07-29T20:48:21.997Z,64.58
2017-07-29T20:50:49.523Z,64.12
2017-07-29T20:53:16.991Z,64.95
2017-07-29T20:55:44.500Z,65.61
2017-07-29T20:58:11.943Z,65.89
2017-07-29T21:00:39.409Z,66.01
2017-07-29T21:03:07.336Z,65.44
2017-07-29T21:05:35.385Z,67.85
2017-07-29T21:08:02.846Z,67.97
2017-07-29T21:10:30.315Z,68.99
2017-07-29T21:12:57.746Z,68.79
2017-07-29T21:15:25.265Z,69.32
2017-07-29T21:17:52.811Z,69.13
2017-07-29T21:20:20.477Z,69.35
2017-07-29T21:22:48.555Z,68.56
2017-07-29T21:25:16.103Z,68.59
2017-07-29T21:27:43.556Z,68.22
2017-07-29T21:30:11.015Z,68.49
2017-07-29T21:32:38.445Z,67.66
2017-07-29T21:35:05.910Z,67.50
2017-07-29T21:37:33.396Z,67.25
2017-07-29T21:40:01.005Z,67.11
2017-07-29T21:42:30.126Z,66.85
2017-07-29T21:44:57.720Z,66.96
2017-07-29T21:47:25.214Z,67.37
2017-07-29T21:49:52.697Z,66.74
2017-07-29T21:52:20.282Z,67.16
2017-07-29T21:54:48.742Z,67.14
2017-07-29T21:57:16.256Z,66.95
2017-07-29T21:59:43.814Z,66.48
2017-07-29T22:02:11.347Z,66.21
2017-07-29T22:04:38.827Z,66.91
2017-07-29T22:07:06.570Z,67.54
2017-07-29T22:09:34.010Z,67.24
2017-07-29T22:12:01.480Z,66.86
2017-07-29T22:14:28.926Z,67.77
2017-07-29T22:16:57.719Z,68.63
2017-07-29T22:19:25.223Z,68.38
2017-07-29T22:21:52.746Z,68.53
2017-07-29T22:24:20.317Z,69.01
2017-07-29T22:26:47.844Z,69.60
2017-07-29T22:29:15.341Z,69.58
2017-07-29T22:31:42.855Z,69.45
2017-07-29T22:34:10.315Z,69.83
2017-07-29T22:39:04.577Z,70.80
2017-07-29T22:41:32.055Z,70.55
2017-07-29T22:43:59.542Z,69.58
2017-07-29T22:46:26.979Z,69.50
2017-07-29T22:48:54.445Z,69.49
2017-07-29T22:51:21.896Z,69.92
2017-07-29T22:53:49.363Z,70.32
2017-07-29T22:56:16.825Z,69.46
2017-07-29T22:58:44.303Z,69.16
2017-07-29T23:01:11.807Z,69.22
2017-07-29T23:03:39.287Z,68.64
2017-07-29T23:06:06.840Z,68.82
2017-07-29T23:08:34.270Z,69.06
2017-07-29T23:11:01.746Z,70.44
2017-07-29T23:13:29.198Z,69.00
2017-07-29T23:15:56.659Z,68.29
2017-07-29T23:18:24.116Z,68.69
2017-07-29T23:20:51.584Z,69.08
2017-07-29T23:23:19.032Z,69.14
2017-07-29T23:25:46.495Z,69.26
2017-07-29T23:28:13.992Z,69.91
2017-07-29T23:30:41.484Z,70.31
2017-07-29T23:33:08.957Z,68.24
2017-07-29T23:35:36.495Z,67.91
2017-07-29T23:38:03.978Z,66.80
2017-07-29T23:40:31.479Z,67.38
2017-07-29T23:42:58.982Z,68.52
2017-07-29T23:45:26.467Z,69.46
2017-07-29T23:47:54.003Z,70.99
2017-07-29T23:50:21.448Z,71.37
2017-07-29T23:52:48.943Z,72.77
2017-07-29T23:55:16.387Z,73.07
2017-07-29T23:57:43.935Z,74.58
